createdAt,value
2018-07-04T00:02:15.705Z,17.50
2018-07-04T00:04:55.460Z,17.50
2018-07-04T00:07:35.152Z,17.50
2018-07-04T00:10:14.844Z,17.60
2018-07-04T00:12:54.541Z,17.60
2018-07-04T00:15:34.100Z,17.60
2018-07-04T00:18:13.965Z,17.60
2018-07-04T00:23:26.871Z,17.60
2018-07-04T00:26:06.675Z,17.60
2018-07-04T00:28:46.540Z,17.60
2018-07-04T00:31:26.217Z,17.60
2018-07-04T00:34:05.803Z,17.60
2018-07-04T00:36:45.496Z,17.60
2018-07-04T00:39:25.080Z,17.70
2018-07-04T00:44:39.085Z,17.70
2018-07-04T00:47:18.795Z,17.70
2018-07-04T00:49:58.396Z,17.70
2018-07-04T00:52:38.005Z,17.60
2018-07-04T00:55:17.556Z,17.60
2018-07-04T01:03:17.053Z,17.50
2018-07-04T01:08:30.209Z,17.40
2018-07-04T01:11:09.924Z,17.40
2018-07-04T01:13:49.655Z,17.30
2018-07-04T01:16:29.267Z,17.30
2018-07-04T01:19:08.800Z,17.20
2018-07-04T01:21:48.499Z,17.20
2018-07-04T01:24:28.119Z,17.20
2018-07-04T01:27:07.602Z,17.10
2018-07-04T01:29:47.335Z,17.10
2018-07-04T01:32:26.927Z,17.10
2018-07-04T01:35:06.576Z,17.00
2018-07-04T01:37:46.331Z,17.00
2018-07-04T01:40:26.066Z,16.90
2018-07-04T01:43:05.560Z,16.90
2018-07-04T01:45:45.252Z,16.80
2018-07-04T01:48:24.721Z,16.70
2018-07-04T01:51:04.428Z,16.70
2018-07-04T01:56:17.711Z,16.60
2018-07-04T01:58:57.218Z,16.50
2018-07-04T02:01:36.864Z,16.50
2018-07-04T02:04:16.680Z,16.40
2018-07-04T02:06:56.336Z,16.30
2018-07-04T02:09:35.917Z,16.20
2018-07-04T02:12:15.535Z,16.10
2018-07-04T02:14:55.256Z,16.00
2018-07-04T02:17:34.858Z,16.00
2018-07-04T02:22:47.949Z,15.90
2018-07-04T02:25:27.495Z,15.80
2018-07-04T02:28:07.232Z,15.80
2018-07-04T02:30:46.994Z,15.80
2018-07-04T02:36:00.333Z,15.70
2018-07-04T02:38:39.870Z,15.60
2018-07-04T02:41:19.560Z,15.60
2018-07-04T02:43:59.070Z,15.50
2018-07-04T02:46:39.089Z,15.40
2018-07-04T02:49:19.656Z,15.40
2018-07-04T02:54:32.792Z,15.30
2018-07-04T02:57:12.556Z,15.30
2018-07-04T02:59:52.140Z,15.20
2018-07-04T03:02:32.287Z,15.10
2018-07-04T03:07:45.516Z,15.00
2018-07-04T03:10:25.220Z,14.90
2018-07-04T03:15:38.629Z,14.80
2018-07-04T03:18:18.456Z,14.80
2018-07-04T03:20:58.100Z,14.80
2018-07-04T03:23:37.623Z,14.70
2018-07-04T03:26:17.332Z,14.70
2018-07-04T03:28:57.156Z,14.70
2018-07-04T03:31:36.941Z,14.70
2018-07-04T03:34:16.655Z,14.60
2018-07-04T03:36:56.124Z,14.60
2018-07-04T03:39:35.737Z,14.60
2018-07-04T03:42:15.407Z,14.60
2018-07-04T03:44:55.089Z,14.60
2018-07-04T03:47:34.579Z,14.60
2018-07-04T03:52:47.839Z,14.70
2018-07-04T03:55:27.372Z,14.70
2018-07-04T03:58:06.893Z,14.80
2018-07-04T04:00:46.736Z,14.90
2018-07-04T04:03:26.448Z,14.90
2018-07-04T04:06:06.012Z,15.00
2018-07-04T04:08:45.691Z,15.10
2018-07-04T04:11:25.348Z,15.20
2018-07-04T04:14:04.913Z,15.30
2018-07-04T04:16:44.552Z,15.40
2018-07-04T04:19:28.496Z,15.50
2018-07-04T04:22:07.820Z,15.70
2018-07-04T04:24:47.572Z,15.80
2018-07-04T04:27:27.177Z,16.00
2018-07-04T04:30:06.863Z,16.20
2018-07-04T04:32:46.353Z,16.30
2018-07-04T04:35:26.017Z,16.50
2018-07-04T04:38:05.580Z,16.70
2018-07-04T04:40:45.515Z,16.80
2018-07-04T04:43:25.173Z,17.00
2018-07-04T04:46:04.724Z,17.20
2018-07-04T04:48:44.283Z,17.30
2018-07-04T04:51:24.010Z,17.50
2018-07-04T04:54:03.648Z,17.70
2018-07-04T04:56:43.352Z,17.80
2018-07-04T04:59:23.236Z,18.00
2018-07-04T05:02:02.941Z,18.20
2018-07-04T05:04:42.579Z,18.40
2018-07-04T05:07:22.181Z,18.50
2018-07-04T05:10:01.760Z,18.70
2018-07-04T05:12:41.296Z,18.80
2018-07-04T05:15:20.999Z,19.00
2018-07-04T05:18:00.507Z,19.10
2018-07-04T05:20:40.195Z,19.20
2018-07-04T05:23:19.896Z,19.30
2018-07-04T05:25:59.600Z,19.30
2018-07-04T05:28:39.148Z,19.40
2018-07-04T05:31:18.884Z,19.40
2018-07-04T05:33:58.596Z,19.40
2018-07-04T05:36:38.093Z,19.40
2018-07-04T05:39:17.664Z,19.40
2018-07-04T05:41:57.159Z,19.40
2018-07-04T05:44:36.844Z,19.40
2018-07-04T05:47:16.240Z,19.50
2018-07-04T05:49:55.817Z,19.50
2018-07-04T05:52:35.532Z,19.60
2018-07-04T05:55:15.157Z,19.60
2018-07-04T05:57:54.726Z,19.70
2018-07-04T06:00:34.286Z,19.80
2018-07-04T06:03:13.976Z,19.90
2018-07-04T06:05:53.539Z,20.00
2018-07-04T06:08:33.174Z,20.20
2018-07-04T06:11:12.609Z,20.30
2018-07-04T06:13:52.264Z,20.40
2018-07-04T06:16:31.730Z,20.50
2018-07-04T06:19:11.760Z,20.70
2018-07-04T06:21:51.575Z,20.80
2018-07-04T06:24:31.348Z,20.90
2018-07-04T06:27:11.100Z,21.10
2018-07-04T06:29:50.693Z,21.30
2018-07-04T06:32:30.459Z,21.50
2018-07-04T06:35:10.013Z,21.70
2018-07-04T06:37:39.440Z,21.80
2018-07-04T06:40:07.036Z,22.00
2018-07-04T06:42:35.005Z,22.30
2018-07-04T06:45:02.220Z,22.50
2018-07-04T06:47:29.473Z,22.70
2018-07-04T06:49:56.670Z,22.90
2018-07-04T06:52:23.862Z,23.10
2018-07-04T06:54:51.560Z,23.30
2018-07-04T06:57:19.848Z,23.40
2018-07-04T06:59:47.428Z,23.50
2018-07-04T07:02:15.620Z,23.70
2018-07-04T07:04:56.386Z,23.80
2018-07-04T07:07:36.013Z,24.00
2018-07-04T07:10:15.552Z,24.20
2018-07-04T07:12:55.188Z,24.40
2018-07-04T07:15:34.892Z,24.50
2018-07-04T07:18:15.149Z,24.60
2018-07-04T07:20:54.560Z,24.70
2018-07-04T07:23:34.248Z,24.80
2018-07-04T07:26:13.944Z,24.90
2018-07-04T07:28:53.589Z,25.10
2018-07-04T07:34:07.038Z,25.30
2018-07-04T07:36:47.044Z,25.40
2018-07-04T07:39:26.523Z,25.50
2018-07-04T07:42:06.560Z,25.70
2018-07-04T07:44:46.688Z,25.80
2018-07-04T07:47:26.372Z,26.00
2018-07-04T07:50:06.056Z,26.10
2018-07-04T07:52:45.707Z,26.20
2018-07-04T07:55:25.366Z,26.30
2018-07-04T07:58:04.877Z,26.40
2018-07-04T08:00:44.536Z,26.40
2018-07-04T08:03:24.297Z,26.50
2018-07-04T08:06:03.861Z,26.60
2018-07-04T08:08:43.500Z,26.60
2018-07-04T08:11:22.964Z,26.60
2018-07-04T08:14:02.476Z,26.70
2018-07-04T08:16:41.981Z,26.70
2018-07-04T08:19:21.642Z,26.70
2018-07-04T08:22:01.561Z,26.70
2018-07-04T08:24:41.089Z,26.70
2018-07-04T08:27:20.652Z,26.70
2018-07-04T08:30:00.209Z,26.70
2018-07-04T08:32:39.920Z,26.70
2018-07-04T08:35:19.329Z,26.70
2018-07-04T08:37:58.964Z,26.60
2018-07-04T08:40:38.640Z,26.70
2018-07-04T08:43:18.201Z,26.70
2018-07-04T08:45:57.692Z,26.80
2018-07-04T08:48:37.532Z,27.00
2018-07-04T08:51:17.277Z,27.10
2018-07-04T08:53:56.792Z,27.20
2018-07-04T08:56:36.284Z,27.30
2018-07-04T08:59:15.847Z,27.30
2018-07-04T09:01:55.648Z,27.30
2018-07-04T09:04:35.227Z,27.30
2018-07-04T09:07:14.825Z,27.30
2018-07-04T09:09:54.462Z,27.30
2018-07-04T09:12:34.032Z,27.40
2018-07-04T09:17:47.209Z,27.40
2018-07-04T09:20:26.700Z,27.50
2018-07-04T09:23:06.412Z,27.50
2018-07-04T09:25:46.022Z,27.60
2018-07-04T09:28:25.715Z,27.70
2018-07-04T09:31:05.387Z,27.80
2018-07-04T09:33:45.027Z,27.90
2018-07-04T09:36:24.720Z,27.90
2018-07-04T09:39:04.736Z,27.90
2018-07-04T09:41:44.404Z,27.80
2018-07-04T09:44:24.068Z,27.80
2018-07-04T09:47:03.728Z,27.90
2018-07-04T09:49:43.474Z,27.90
2018-07-04T09:52:23.017Z,28.00
2018-07-04T09:55:02.541Z,28.00
2018-07-04T09:57:42.012Z,28.10
2018-07-04T10:00:27.605Z,28.10
2018-07-04T10:03:07.900Z,28.10
2018-07-04T10:05:47.537Z,28.00
2018-07-04T10:08:27.956Z,27.90
2018-07-04T10:11:07.564Z,27.70
2018-07-04T10:13:47.072Z,27.40
2018-07-04T10:16:26.684Z,26.90
2018-07-04T10:19:06.248Z,26.30
2018-07-04T10:21:45.941Z,25.70
2018-07-04T10:24:26.356Z,25.10
2018-07-04T10:27:05.952Z,24.70
2018-07-04T10:29:45.484Z,24.30
2018-07-04T10:32:25.048Z,23.90
2018-07-04T10:35:04.704Z,23.60
2018-07-04T10:37:44.255Z,23.30
2018-07-04T10:40:23.855Z,23.00
2018-07-04T10:43:03.472Z,22.60
2018-07-04T10:45:43.256Z,22.30
2018-07-04T10:48:22.992Z,22.00
2018-07-04T10:53:36.153Z,21.70
2018-07-04T10:56:15.656Z,21.50
2018-07-04T10:58:55.380Z,21.40
2018-07-04T11:01:35.149Z,21.30
2018-07-04T11:04:14.774Z,21.10
2018-07-04T11:06:54.382Z,21.00
2018-07-04T11:09:33.928Z,20.90
2018-07-04T11:12:13.648Z,20.90
2018-07-04T11:14:53.194Z,20.80
2018-07-04T11:17:32.809Z,20.80
2018-07-04T11:20:12.453Z,20.80
2018-07-04T11:22:52.041Z,20.80
2018-07-04T11:25:31.595Z,20.90
2018-07-04T11:28:12.240Z,21.00
2018-07-04T11:30:52.348Z,21.00
2018-07-04T11:33:31.892Z,21.10
2018-07-04T11:36:11.780Z,21.20
2018-07-04T11:38:51.457Z,21.30
2018-07-04T11:41:30.776Z,21.50
2018-07-04T11:44:10.440Z,21.70
2018-07-04T11:49:05.201Z,22.30
2018-07-04T11:51:32.397Z,22.60
2018-07-04T11:53:59.586Z,22.80
2018-07-04T11:56:26.856Z,23.10
2018-07-04T11:58:54.033Z,23.50
2018-07-04T12:01:21.209Z,23.80
2018-07-04T12:04:00.724Z,24.10
2018-07-04T12:06:40.417Z,24.40
2018-07-04T12:11:35.121Z,25.20
2018-07-04T12:14:02.324Z,25.60
2018-07-04T12:16:29.528Z,25.90
2018-07-04T12:18:56.723Z,26.30
2018-07-04T12:21:23.929Z,26.50
2018-07-04T12:23:51.141Z,26.70
2018-07-04T12:26:18.336Z,26.90
2018-07-04T12:28:45.606Z,27.00
2018-07-04T12:31:12.769Z,27.20
2018-07-04T12:33:39.964Z,27.30
2018-07-04T12:36:07.168Z,27.40
2018-07-04T12:38:34.344Z,27.50
2018-07-04T12:41:01.544Z,27.60
2018-07-04T12:43:28.793Z,27.60
2018-07-04T12:45:55.965Z,27.70
2018-07-04T12:48:23.165Z,27.70
2018-07-04T12:50:50.472Z,27.70
2018-07-04T12:53:17.643Z,27.70
2018-07-04T12:55:57.260Z,27.80
2018-07-04T12:58:36.849Z,27.90
2018-07-04T13:01:16.476Z,28.10
2018-07-04T13:03:56.065Z,28.30
2018-07-04T13:06:35.579Z,28.50
2018-07-04T13:09:15.282Z,28.70
2018-07-04T13:11:54.988Z,28.90
2018-07-04T13:17:08.408Z,29.30
2018-07-04T13:19:47.963Z,29.60
2018-07-04T13:22:27.521Z,29.70
2018-07-04T13:25:07.249Z,29.80
2018-07-04T13:27:46.760Z,29.90
2018-07-04T13:30:26.753Z,30.00
2018-07-04T13:33:06.376Z,29.90
2018-07-04T13:35:46.104Z,29.80
2018-07-04T13:38:25.777Z,29.70
2018-07-04T13:41:05.488Z,29.60
2018-07-04T13:43:45.175Z,29.70
2018-07-04T13:46:24.777Z,29.90
2018-07-04T13:49:04.249Z,30.10
2018-07-04T13:51:43.777Z,30.20
2018-07-04T13:54:23.377Z,30.40
2018-07-04T13:57:03.310Z,30.70
2018-07-04T13:59:42.708Z,31.10
2018-07-04T14:02:22.283Z,31.60
2018-07-04T14:05:02.264Z,32.10
2018-07-04T14:07:41.992Z,32.30
2018-07-04T14:10:21.741Z,32.50
2018-07-04T14:13:01.365Z,32.50
2018-07-04T14:15:40.985Z,32.40
2018-07-04T14:18:20.668Z,32.20
2018-07-04T14:21:00.120Z,31.90
2018-07-04T14:26:13.889Z,31.30
2018-07-04T14:28:53.609Z,31.00
2018-07-04T14:31:33.098Z,30.70
2018-07-04T14:34:12.759Z,30.30
2018-07-04T14:36:52.428Z,29.90
2018-07-04T14:39:31.856Z,29.60
2018-07-04T14:42:11.996Z,29.10
2018-07-04T14:44:51.717Z,28.70
2018-07-04T14:47:31.416Z,28.10
2018-07-04T14:50:10.984Z,27.60
2018-07-04T14:52:50.536Z,27.10
2018-07-04T14:55:30.193Z,26.30
2018-07-04T14:58:09.863Z,25.40
2018-07-04T15:00:49.316Z,24.30
2018-07-04T15:03:29.020Z,23.20
2018-07-04T15:06:08.575Z,22.10
2018-07-04T15:08:48.097Z,21.30
2018-07-04T15:11:27.800Z,20.70
2018-07-04T15:14:07.376Z,20.30
2018-07-04T15:16:46.862Z,20.30
2018-07-04T15:19:26.353Z,20.50
2018-07-04T15:22:06.191Z,20.70
2018-07-04T15:27:19.873Z,21.50
2018-07-04T15:29:59.327Z,22.10
2018-07-04T15:32:39.124Z,22.90
2018-07-04T15:35:18.804Z,23.70
2018-07-04T15:37:58.383Z,24.60
2018-07-04T15:40:38.440Z,25.50
2018-07-04T15:43:18.224Z,26.30
2018-07-04T15:45:57.800Z,26.90
2018-07-04T15:48:37.300Z,27.50
2018-07-04T15:51:16.759Z,28.00
2018-07-04T15:53:56.312Z,28.60
2018-07-04T15:56:35.844Z,29.20
2018-07-04T15:59:15.448Z,29.80
2018-07-04T16:01:55.017Z,30.30
2018-07-04T16:04:34.580Z,30.90
2018-07-04T16:07:14.289Z,31.30
2018-07-04T16:09:53.924Z,32.00
2018-07-04T16:12:33.607Z,32.20
2018-07-04T16:15:13.069Z,32.00
2018-07-04T16:17:52.727Z,31.40
2018-07-04T16:20:32.452Z,30.70
2018-07-04T16:23:12.077Z,30.10
2018-07-04T16:25:51.772Z,29.50
2018-07-04T16:28:31.353Z,28.90
2018-07-04T16:31:10.861Z,28.40
2018-07-04T16:33:50.480Z,27.90
2018-07-04T16:36:30.091Z,27.50
2018-07-04T16:39:09.821Z,27.20
2018-07-04T16:41:49.396Z,26.90
2018-07-04T16:44:29.063Z,26.70
2018-07-04T16:47:08.661Z,26.60
2018-07-04T16:49:48.140Z,26.50
2018-07-04T16:52:27.675Z,26.60
2018-07-04T16:55:07.283Z,26.60
2018-07-04T16:57:46.732Z,26.80
2018-07-04T17:00:26.416Z,26.90
2018-07-04T17:03:05.932Z,27.10
2018-07-04T17:05:45.368Z,27.30
2018-07-04T17:08:25.016Z,27.40
2018-07-04T17:11:04.473Z,27.50
2018-07-04T17:13:44.124Z,27.70
2018-07-04T17:16:23.737Z,27.80
2018-07-04T17:19:03.356Z,28.00
2018-07-04T17:21:42.921Z,28.30
2018-07-04T17:24:22.374Z,28.30
2018-07-04T17:27:01.909Z,28.30
2018-07-04T17:29:41.601Z,28.40
2018-07-04T17:32:21.320Z,28.30
2018-07-04T17:35:00.856Z,28.20
2018-07-04T17:37:40.320Z,28.00
2018-07-04T17:40:20.044Z,27.80
2018-07-04T17:42:59.626Z,27.60
2018-07-04T17:45:39.250Z,27.40
2018-07-04T17:48:18.686Z,27.10
2018-07-04T17:50:58.411Z,26.90
2018-07-04T17:53:38.196Z,26.60
2018-07-04T17:56:17.728Z,26.40
2018-07-04T17:58:57.300Z,26.20
2018-07-04T18:01:36.842Z,26.00
2018-07-04T18:04:16.373Z,25.80
2018-07-04T18:06:56.081Z,25.60
2018-07-04T18:09:35.491Z,25.50
2018-07-04T18:12:15.180Z,25.40
2018-07-04T18:14:54.939Z,25.20
2018-07-04T18:20:07.949Z,25.10
2018-07-04T18:22:47.561Z,25.00
2018-07-04T18:25:27.084Z,24.90
2018-07-04T18:28:06.533Z,24.80
2018-07-04T18:33:19.648Z,24.30
2018-07-04T18:35:59.168Z,24.10
2018-07-04T18:38:38.856Z,23.70
2018-07-04T18:41:18.564Z,23.40
2018-07-04T18:46:31.608Z,22.90
2018-07-04T18:49:11.308Z,22.70
2018-07-04T18:51:50.912Z,22.60
2018-07-04T18:54:30.580Z,22.40
2018-07-04T18:57:10.265Z,22.30
2018-07-04T18:59:49.839Z,22.10
2018-07-04T19:02:29.504Z,22.00
2018-07-04T19:05:09.049Z,22.00
2018-07-04T19:07:48.748Z,22.00
2018-07-04T19:10:28.296Z,21.90
2018-07-04T19:13:07.888Z,21.80
2018-07-04T19:15:47.608Z,21.70
2018-07-04T19:18:27.228Z,21.70
2018-07-04T19:21:06.819Z,21.60
2018-07-04T19:23:46.500Z,21.50
2018-07-04T19:26:26.016Z,21.40
2018-07-04T19:29:05.669Z,21.20
2018-07-04T19:31:45.113Z,21.10
2018-07-04T19:34:24.800Z,20.90
2018-07-04T19:37:04.477Z,20.70
2018-07-04T19:39:44.015Z,20.50
2018-07-04T19:42:23.626Z,20.40
2018-07-04T19:45:03.228Z,20.20
2018-07-04T19:47:43.016Z,20.10
2018-07-04T19:50:22.709Z,19.90
2018-07-04T19:53:02.280Z,19.80
2018-07-04T19:55:41.971Z,19.60
2018-07-04T19:58:21.492Z,19.50
2018-07-04T20:01:01.088Z,19.40
2018-07-04T20:03:40.727Z,19.20
2018-07-04T20:06:20.433Z,19.10
2018-07-04T20:08:59.988Z,19.00
2018-07-04T20:11:39.774Z,18.90
2018-07-04T20:14:19.456Z,18.80
2018-07-04T20:16:59.047Z,18.80
2018-07-04T20:19:38.620Z,18.70
2018-07-04T20:24:51.836Z,18.50
2018-07-04T20:27:31.529Z,18.40
2018-07-04T20:30:11.081Z,18.30
2018-07-04T20:32:50.732Z,18.20
2018-07-04T20:35:30.252Z,18.10
2018-07-04T20:38:09.836Z,18.10
2018-07-04T20:40:49.459Z,18.10
2018-07-04T20:43:29.225Z,18.10
2018-07-04T20:46:08.552Z,18.10
2018-07-04T20:48:48.302Z,18.10
2018-07-04T20:51:27.924Z,18.10
2018-07-04T20:54:07.445Z,18.00
2018-07-04T20:56:47.024Z,18.10
2018-07-04T20:59:26.728Z,18.00
2018-07-04T21:02:06.269Z,18.00
2018-07-04T21:04:46.073Z,18.00
2018-07-04T21:07:25.604Z,18.00
2018-07-04T21:10:05.414Z,18.00
2018-07-04T21:12:44.807Z,18.00
2018-07-04T21:15:24.437Z,17.90
2018-07-04T21:18:04.120Z,17.80
2018-07-04T21:20:44.040Z,17.80
2018-07-04T21:23:23.653Z,17.70
2018-07-04T21:26:03.341Z,17.70
2018-07-04T21:28:42.872Z,17.70
2018-07-04T21:31:22.388Z,17.60
2018-07-04T21:34:02.086Z,17.70
2018-07-04T21:36:41.740Z,17.70
2018-07-04T21:39:21.295Z,17.70
2018-07-04T21:42:01.056Z,17.70
2018-07-04T21:44:40.761Z,17.60
2018-07-04T21:47:20.333Z,17.50
2018-07-04T21:49:59.813Z,17.50
2018-07-04T21:52:39.495Z,17.40
2018-07-04T21:55:18.981Z,17.30
2018-07-04T21:57:58.816Z,17.30
2018-07-04T22:00:38.472Z,17.20
2018-07-04T22:03:17.997Z,17.10
2018-07-04T22:05:57.741Z,17.10
2018-07-04T22:08:37.413Z,17.00
2018-07-04T22:11:17.061Z,17.00
2018-07-04T22:13:56.754Z,16.90
2018-07-04T22:16:36.406Z,16.90
2018-07-04T22:19:21.572Z,16.90
2018-07-04T22:22:01.117Z,16.90
2018-07-04T22:24:40.887Z,17.00
2018-07-04T22:44:54.297Z,16.90
2018-07-04T22:47:34.333Z,16.80
2018-07-04T22:50:14.055Z,16.70
2018-07-04T22:52:53.667Z,16.70
2018-07-04T22:55:33.307Z,16.60
2018-07-04T22:58:13.264Z,16.50
2018-07-04T23:00:52.909Z,16.50
2018-07-04T23:03:32.788Z,16.40
2018-07-04T23:06:12.938Z,16.40
2018-07-04T23:08:52.613Z,16.40
2018-07-04T23:11:32.888Z,16.30
2018-07-04T23:14:12.742Z,16.30
2018-07-04T23:16:52.695Z,16.20
2018-07-04T23:19:32.877Z,16.20
2018-07-04T23:22:12.387Z,16.10
2018-07-04T23:24:52.205Z,16.10
2018-07-04T23:27:31.825Z,16.00
2018-07-04T23:30:11.700Z,16.00
2018-07-04T23:32:51.534Z,15.90
2018-07-04T23:38:05.131Z,15.90
2018-07-04T23:40:45.000Z,15.90
2018-07-04T23:43:24.744Z,15.90
2018-07-04T23:46:04.625Z,15.90
2018-07-04T23:48:44.327Z,15.90
2018-07-04T23:51:24.403Z,15.90
2018-07-04T23:54:03.985Z,15.90
2018-07-04T23:56:43.755Z,15.90
2018-07-04T23:59:23.370Z,15.90
